sensor_id;sensor_type;location;lat;lon;timestamp;pressure;altitude;pressure_sealevel;temperature;humidity
20043;BME280;10182;52.896;6.496;2022-10-26T00:02:34;101379.78;;;10.15;100.00
20043;BME280;10182;52.896;6.496;2022-10-26T00:07:36;101379.78;;;10.15;100.00
20043;BME280;10182;52.896;6.496;2022-10-26T00:12:39;101377.25;;;10.12;100.00
20043;BME280;10182;52.896;6.496;2022-10-26T00:17:41;101373.00;;;10.08;100.00
20043;BME280;10182;52.896;6.496;2022-10-26T00:22:45;101369.63;;;10.03;100.00
20043;BME280;10182;52.896;6.496;2022-10-26T00:27:48;101372.44;;;9.98;100.00
20043;BME280;10182;52.896;6.496;2022-10-26T00:32:49;101375.31;;;9.92;100.00
20043;BME280;10182;52.896;6.496;2022-10-26T00:37:53;101370.22;;;9.86;100.00
20043;BME280;10182;52.896;6.496;2022-10-26T00:42:56;101363.31;;;9.82;100.00
20043;BME280;10182;52.896;6.496;2022-10-26T00:48:03;101355.13;;;9.90;100.00
20043;BME280;10182;52.896;6.496;2022-10-26T00:53:06;101356.44;;;9.76;100.00
20043;BME280;10182;52.896;6.496;2022-10-26T00:58:11;101368.75;;;9.77;100.00
20043;BME280;10182;52.896;6.496;2022-10-26T01:03:13;101361.78;;;9.75;100.00
20043;BME280;10182;52.896;6.496;2022-10-26T01:08:17;101358.19;;;9.77;100.00
20043;BME280;10182;52.896;6.496;2022-10-26T01:13:22;101349.41;;;9.75;100.00
20043;BME280;10182;52.896;6.496;2022-10-26T01:18:32;101344.22;;;9.72;100.00
20043;BME280;10182;52.896;6.496;2022-10-26T01:23:44;101345.38;;;9.65;100.00
20043;BME280;10182;52.896;6.496;2022-10-26T01:34:33;101330.88;;;9.48;100.00
20043;BME280;10182;52.896;6.496;2022-10-26T01:39:38;101335.53;;;9.42;100.00
20043;BME280;10182;52.896;6.496;2022-10-26T01:44:47;101335.78;;;9.34;100.00
20043;BME280;10182;52.896;6.496;2022-10-26T01:49:55;101328.22;;;9.22;100.00
20043;BME280;10182;52.896;6.496;2022-10-26T01:55:03;101321.22;;;9.21;100.00
20043;BME280;10182;52.896;6.496;2022-10-26T02:00:09;101317.44;;;9.28;100.00
20043;BME280;10182;52.896;6.496;2022-10-26T02:05:30;101309.63;;;9.25;100.00
20043;BME280;10182;52.896;6.496;2022-10-26T02:10:45;101304.00;;;9.07;100.00
20043;BME280;10182;52.896;6.496;2022-10-26T02:15:53;101307.91;;;8.95;100.00
20043;BME280;10182;52.896;6.496;2022-10-26T02:21:04;101298.19;;;8.96;100.00
20043;BME280;10182;52.896;6.496;2022-10-26T02:26:07;101297.41;;;8.94;100.00
20043;BME280;10182;52.896;6.496;2022-10-26T02:31:11;101295.03;;;8.85;100.00
20043;BME280;10182;52.896;6.496;2022-10-26T02:36:17;101288.63;;;8.92;100.00
20043;BME280;10182;52.896;6.496;2022-10-26T02:41:21;101283.19;;;8.98;100.00
20043;BME280;10182;52.896;6.496;2022-10-26T02:46:25;101268.97;;;9.01;100.00
20043;BME280;10182;52.896;6.496;2022-10-26T02:51:36;101270.66;;;9.03;100.00
20043;BME280;10182;52.896;6.496;2022-10-26T02:56:44;101256.88;;;8.93;100.00
20043;BME280;10182;52.896;6.496;2022-10-26T03:01:49;101263.84;;;8.96;100.00
20043;BME280;10182;52.896;6.496;2022-10-26T03:06:53;101257.75;;;8.94;100.00
20043;BME280;10182;52.896;6.496;2022-10-26T03:11:55;101252.38;;;8.97;100.00
20043;BME280;10182;52.896;6.496;2022-10-26T03:16:56;101254.97;;;8.98;100.00
20043;BME280;10182;52.896;6.496;2022-10-26T03:21:59;101248.56;;;9.06;100.00
20043;BME280;10182;52.896;6.496;2022-10-26T03:27:01;101247.72;;;9.05;100.00
20043;BME280;10182;52.896;6.496;2022-10-26T03:32:03;101239.78;;;9.05;100.00
20043;BME280;10182;52.896;6.496;2022-10-26T03:37:06;101237.25;;;9.02;100.00
20043;BME280;10182;52.896;6.496;2022-10-26T03:42:08;101236.25;;;9.05;100.00
20043;BME280;10182;52.896;6.496;2022-10-26T03:47:10;101226.75;;;8.99;100.00
20043;BME280;10182;52.896;6.496;2022-10-26T03:52:13;101228.53;;;8.98;100.00
20043;BME280;10182;52.896;6.496;2022-10-26T03:57:14;101223.41;;;8.94;100.00
20043;BME280;10182;52.896;6.496;2022-10-26T04:02:16;101222.69;;;8.89;100.00
20043;BME280;10182;52.896;6.496;2022-10-26T04:07:19;101230.47;;;8.93;100.00
20043;BME280;10182;52.896;6.496;2022-10-26T04:12:21;101230.50;;;8.92;100.00
20043;BME280;10182;52.896;6.496;2022-10-26T04:17:22;101234.16;;;8.88;100.00
20043;BME280;10182;52.896;6.496;2022-10-26T04:22:26;101238.44;;;8.92;100.00
20043;BME280;10182;52.896;6.496;2022-10-26T04:27:27;101241.91;;;8.94;100.00
20043;BME280;10182;52.896;6.496;2022-10-26T04:32:29;101247.75;;;9.04;100.00
20043;BME280;10182;52.896;6.496;2022-10-26T04:37:39;101246.81;;;9.06;100.00
20043;BME280;10182;52.896;6.496;2022-10-26T04:42:41;101250.13;;;9.11;100.00
20043;BME280;10182;52.896;6.496;2022-10-26T04:47:43;101243.75;;;9.19;100.00
20043;BME280;10182;52.896;6.496;2022-10-26T04:52:49;101248.22;;;9.17;100.00
20043;BME280;10182;52.896;6.496;2022-10-26T04:57:51;101243.66;;;9.22;100.00
20043;BME280;10182;52.896;6.496;2022-10-26T05:02:57;101241.81;;;9.24;100.00
20043;BME280;10182;52.896;6.496;2022-10-26T05:08:00;101232.97;;;9.25;100.00
20043;BME280;10182;52.896;6.496;2022-10-26T05:13:02;101227.69;;;9.25;100.00
20043;BME280;10182;52.896;6.496;2022-10-26T05:18:04;101226.53;;;9.32;100.00
20043;BME280;10182;52.896;6.496;2022-10-26T05:23:10;101220.16;;;9.39;100.00
20043;BME280;10182;52.896;6.496;2022-10-26T05:28:20;101215.47;;;9.47;100.00
20043;BME280;10182;52.896;6.496;2022-10-26T05:33:22;101203.94;;;9.48;100.00
20043;BME280;10182;52.896;6.496;2022-10-26T05:38:25;101217.03;;;9.53;100.00
20043;BME280;10182;52.896;6.496;2022-10-26T05:43:27;101221.25;;;9.59;100.00
20043;BME280;10182;52.896;6.496;2022-10-26T05:48:29;101219.31;;;9.64;100.00
20043;BME280;10182;52.896;6.496;2022-10-26T05:53:32;101218.41;;;9.63;100.00
20043;BME280;10182;52.896;6.496;2022-10-26T05:58:35;101222.00;;;9.62;100.00
20043;BME280;10182;52.896;6.496;2022-10-26T06:03:49;101214.81;;;9.66;100.00
20043;BME280;10182;52.896;6.496;2022-10-26T06:08:56;101214.81;;;9.66;100.00
20043;BME280;10182;52.896;6.496;2022-10-26T06:14:03;101217.19;;;9.74;100.00
20043;BME280;10182;52.896;6.496;2022-10-26T06:19:17;101223.13;;;9.80;100.00
20043;BME280;10182;52.896;6.496;2022-10-26T06:24:27;101221.34;;;9.81;100.00
20043;BME280;10182;52.896;6.496;2022-10-26T06:29:42;101225.91;;;9.77;100.00
20043;BME280;10182;52.896;6.496;2022-10-26T06:34:47;101228.69;;;9.73;100.00
20043;BME280;10182;52.896;6.496;2022-10-26T06:39:52;101226.94;;;9.73;100.00
20043;BME280;10182;52.896;6.496;2022-10-26T06:44:56;101225.06;;;9.75;100.00
20043;BME280;10182;52.896;6.496;2022-10-26T06:50:02;101216.09;;;9.79;100.00
20043;BME280;10182;52.896;6.496;2022-10-26T06:55:14;101217.72;;;9.83;100.00
20043;BME280;10182;52.896;6.496;2022-10-26T07:00:19;101216.75;;;9.86;100.00
20043;BME280;10182;52.896;6.496;2022-10-26T07:05:21;101234.94;;;9.95;100.00
20043;BME280;10182;52.896;6.496;2022-10-26T07:10:24;101233.63;;;10.07;100.00
20043;BME280;10182;52.896;6.496;2022-10-26T07:15:26;101241.97;;;10.20;100.00
20043;BME280;10182;52.896;6.496;2022-10-26T07:20:31;101234.56;;;10.30;100.00
20043;BME280;10182;52.896;6.496;2022-10-26T07:25:34;101242.19;;;10.39;100.00
20043;BME280;10182;52.896;6.496;2022-10-26T07:30:38;101235.97;;;10.40;100.00
20043;BME280;10182;52.896;6.496;2022-10-26T07:35:40;101237.34;;;10.50;100.00
20043;BME280;10182;52.896;6.496;2022-10-26T07:40:43;101225.34;;;10.64;100.00
20043;BME280;10182;52.896;6.496;2022-10-26T07:45:48;101222.28;;;10.75;100.00
20043;BME280;10182;52.896;6.496;2022-10-26T07:50:52;101214.69;;;10.88;100.00
20043;BME280;10182;52.896;6.496;2022-10-26T07:55:56;101226.66;;;10.98;100.00
20043;BME280;10182;52.896;6.496;2022-10-26T08:01:06;101230.63;;;11.08;100.00
20043;BME280;10182;52.896;6.496;2022-10-26T08:06:08;101233.84;;;11.16;100.00
20043;BME280;10182;52.896;6.496;2022-10-26T08:11:11;101231.69;;;11.26;100.00
20043;BME280;10182;52.896;6.496;2022-10-26T08:16:16;101228.63;;;11.35;100.00
20043;BME280;10182;52.896;6.496;2022-10-26T08:21:18;101226.59;;;11.42;100.00
20043;BME280;10182;52.896;6.496;2022-10-26T08:26:21;101234.53;;;11.42;100.00
20043;BME280;10182;52.896;6.496;2022-10-26T08:31:23;101236.88;;;11.50;100.00
20043;BME280;10182;52.896;6.496;2022-10-26T08:36:26;101238.25;;;11.59;100.00
20043;BME280;10182;52.896;6.496;2022-10-26T08:41:34;101245.75;;;11.69;100.00
20043;BME280;10182;52.896;6.496;2022-10-26T08:46:40;101249.75;;;12.00;100.00
20043;BME280;10182;52.896;6.496;2022-10-26T08:51:46;101242.69;;;12.39;100.00
20043;BME280;10182;52.896;6.496;2022-10-26T08:56:56;101228.91;;;12.69;100.00
20043;BME280;10182;52.896;6.496;2022-10-26T09:01:58;101230.47;;;12.92;100.00
20043;BME280;10182;52.896;6.496;2022-10-26T09:07:06;101223.06;;;13.16;100.00
20043;BME280;10182;52.896;6.496;2022-10-26T09:12:21;101231.78;;;13.37;100.00
20043;BME280;10182;52.896;6.496;2022-10-26T09:17:32;101232.09;;;13.49;100.00
20043;BME280;10182;52.896;6.496;2022-10-26T09:22:42;101243.06;;;13.60;100.00
20043;BME280;10182;52.896;6.496;2022-10-26T09:27:55;101240.25;;;13.81;100.00
20043;BME280;10182;52.896;6.496;2022-10-26T09:32:58;101243.19;;;13.92;100.00
20043;BME280;10182;52.896;6.496;2022-10-26T09:38:07;101262.56;;;14.12;100.00
20043;BME280;10182;52.896;6.496;2022-10-26T09:43:14;101261.06;;;14.24;100.00
20043;BME280;10182;52.896;6.496;2022-10-26T09:48:24;101253.78;;;14.27;100.00
20043;BME280;10182;52.896;6.496;2022-10-26T09:53:30;101271.63;;;14.25;100.00
20043;BME280;10182;52.896;6.496;2022-10-26T09:58:35;101279.50;;;14.44;100.00
20043;BME280;10182;52.896;6.496;2022-10-26T10:03:37;101265.78;;;14.68;100.00
20043;BME280;10182;52.896;6.496;2022-10-26T10:08:39;101270.09;;;14.86;100.00
20043;BME280;10182;52.896;6.496;2022-10-26T10:13:44;101281.75;;;15.16;100.00
20043;BME280;10182;52.896;6.496;2022-10-26T10:18:52;101281.75;;;15.32;100.00
20043;BME280;10182;52.896;6.496;2022-10-26T10:23:54;101287.41;;;15.42;98.49
20043;BME280;10182;52.896;6.496;2022-10-26T10:28:59;101285.84;;;15.53;98.05
20043;BME280;10182;52.896;6.496;2022-10-26T10:34:14;101277.59;;;15.72;97.42
20043;BME280;10182;52.896;6.496;2022-10-26T10:39:43;101279.09;;;15.93;97.99
20043;BME280;10182;52.896;6.496;2022-10-26T10:44:49;101271.31;;;16.18;96.26
20043;BME280;10182;52.896;6.496;2022-10-26T10:49:54;101284.47;;;16.21;95.61
20043;BME280;10182;52.896;6.496;2022-10-26T10:55:06;101271.69;;;16.27;96.20
20043;BME280;10182;52.896;6.496;2022-10-26T11:00:12;101264.09;;;16.33;96.19
20043;BME280;10182;52.896;6.496;2022-10-26T11:05:33;101263.34;;;16.46;96.38
20043;BME280;10182;52.896;6.496;2022-10-26T11:10:40;101288.19;;;16.62;95.31
20043;BME280;10182;52.896;6.496;2022-10-26T11:15:46;101302.88;;;16.69;92.70
20043;BME280;10182;52.896;6.496;2022-10-26T11:20:55;101308.13;;;16.71;93.03
20043;BME280;10182;52.896;6.496;2022-10-26T11:26:08;101298.16;;;16.73;93.68
20043;BME280;10182;52.896;6.496;2022-10-26T11:31:16;101309.16;;;16.68;93.61
20043;BME280;10182;52.896;6.496;2022-10-26T11:36:21;101317.47;;;16.78;93.47
20043;BME280;10182;52.896;6.496;2022-10-26T11:41:31;101328.63;;;16.85;93.47
20043;BME280;10182;52.896;6.496;2022-10-26T11:46:39;101325.28;;;16.96;92.78
20043;BME280;10182;52.896;6.496;2022-10-26T11:51:45;101328.03;;;17.08;92.09
20043;BME280;10182;52.896;6.496;2022-10-26T11:56:52;101321.50;;;17.13;92.68
20043;BME280;10182;52.896;6.496;2022-10-26T12:02:03;101321.78;;;17.22;93.36
20043;BME280;10182;52.896;6.496;2022-10-26T12:07:10;101332.59;;;17.21;92.72
20043;BME280;10182;52.896;6.496;2022-10-26T12:12:20;101350.78;;;17.16;93.59
20043;BME280;10182;52.896;6.496;2022-10-26T12:17:29;101347.59;;;17.23;92.59
20043;BME280;10182;52.896;6.496;2022-10-26T12:22:36;101351.59;;;17.31;92.25
20043;BME280;10182;52.896;6.496;2022-10-26T12:27:53;101360.00;;;17.39;92.76
20043;BME280;10182;52.896;6.496;2022-10-26T12:32:57;101368.19;;;17.36;92.65
20043;BME280;10182;52.896;6.496;2022-10-26T12:38:01;101382.25;;;17.39;93.79
20043;BME280;10182;52.896;6.496;2022-10-26T12:48:49;101373.13;;;17.29;94.87
20043;BME280;10182;52.896;6.496;2022-10-26T12:53:55;101377.00;;;17.38;95.15
20043;BME280;10182;52.896;6.496;2022-10-26T12:59:17;101381.09;;;17.43;95.32
20043;BME280;10182;52.896;6.496;2022-10-26T13:10:05;101387.16;;;17.33;96.25
20043;BME280;10182;52.896;6.496;2022-10-26T13:15:21;101408.50;;;17.20;96.59
20043;BME280;10182;52.896;6.496;2022-10-26T13:20:23;101404.94;;;17.19;96.95
20043;BME280;10182;52.896;6.496;2022-10-26T13:25:28;101412.25;;;17.17;98.96
20043;BME280;10182;52.896;6.496;2022-10-26T13:30:41;101417.28;;;17.22;98.39
20043;BME280;10182;52.896;6.496;2022-10-26T13:35:43;101415.19;;;17.27;99.22
20043;BME280;10182;52.896;6.496;2022-10-26T13:40:46;101417.28;;;17.22;97.24
20043;BME280;10182;52.896;6.496;2022-10-26T13:45:53;101423.78;;;17.18;97.13
20043;BME280;10182;52.896;6.496;2022-10-26T13:50:58;101420.25;;;17.17;97.28
20043;BME280;10182;52.896;6.496;2022-10-26T13:56:11;101415.75;;;17.18;97.21
20043;BME280;10182;52.896;6.496;2022-10-26T14:01:18;101422.28;;;17.14;97.75
20043;BME280;10182;52.896;6.496;2022-10-26T14:06:26;101417.88;;;17.13;98.29
20043;BME280;10182;52.896;6.496;2022-10-26T14:11:35;101423.31;;;17.11;98.35
20043;BME280;10182;52.896;6.496;2022-10-26T14:16:44;101430.28;;;17.14;98.01
20043;BME280;10182;52.896;6.496;2022-10-26T14:21:46;101431.19;;;17.14;98.85
20043;BME280;10182;52.896;6.496;2022-10-26T14:26:51;101445.50;;;17.13;99.24
20043;BME280;10182;52.896;6.496;2022-10-26T14:31:55;101453.25;;;17.03;99.84
20043;BME280;10182;52.896;6.496;2022-10-26T14:37:00;101462.44;;;16.99;100.00
20043;BME280;10182;52.896;6.496;2022-10-26T14:42:10;101459.28;;;16.92;100.00
20043;BME280;10182;52.896;6.496;2022-10-26T14:47:14;101464.47;;;16.80;100.00
20043;BME280;10182;52.896;6.496;2022-10-26T14:52:23;101465.34;;;16.66;100.00
20043;BME280;10182;52.896;6.496;2022-10-26T14:57:34;101473.75;;;16.60;100.00
20043;BME280;10182;52.896;6.496;2022-10-26T15:02:38;101484.13;;;16.50;100.00
20043;BME280;10182;52.896;6.496;2022-10-26T15:07:40;101497.88;;;16.44;100.00
20043;BME280;10182;52.896;6.496;2022-10-26T15:12:45;101512.47;;;16.38;100.00
20043;BME280;10182;52.896;6.496;2022-10-26T15:17:49;101527.81;;;16.34;100.00
20043;BME280;10182;52.896;6.496;2022-10-26T15:22:54;101538.88;;;16.28;100.00
20043;BME280;10182;52.896;6.496;2022-10-26T15:28:08;101561.47;;;16.22;100.00
20043;BME280;10182;52.896;6.496;2022-10-26T15:33:19;101564.66;;;16.13;100.00
20043;BME280;10182;52.896;6.496;2022-10-26T15:38:21;101572.34;;;16.03;100.00
20043;BME280;10182;52.896;6.496;2022-10-26T15:43:24;101568.97;;;16.00;100.00
20043;BME280;10182;52.896;6.496;2022-10-26T15:48:27;101566.81;;;15.90;100.00
20043;BME280;10182;52.896;6.496;2022-10-26T15:53:31;101570.97;;;15.80;100.00
20043;BME280;10182;52.896;6.496;2022-10-26T15:58:35;101570.56;;;15.70;100.00
20043;BME280;10182;52.896;6.496;2022-10-26T16:03:37;101573.59;;;15.64;100.00
20043;BME280;10182;52.896;6.496;2022-10-26T16:08:38;101570.13;;;15.62;100.00
20043;BME280;10182;52.896;6.496;2022-10-26T16:13:41;101592.69;;;15.56;100.00
20043;BME280;10182;52.896;6.496;2022-10-26T16:18:43;101587.53;;;15.53;100.00
20043;BME280;10182;52.896;6.496;2022-10-26T16:23:46;101598.13;;;15.55;100.00
20043;BME280;10182;52.896;6.496;2022-10-26T16:28:50;101588.31;;;15.55;100.00
20043;BME280;10182;52.896;6.496;2022-10-26T16:33:51;101596.31;;;15.55;100.00
20043;BME280;10182;52.896;6.496;2022-10-26T16:38:53;101597.25;;;15.54;100.00
20043;BME280;10182;52.896;6.496;2022-10-26T16:43:57;101602.44;;;15.57;100.00
20043;BME280;10182;52.896;6.496;2022-10-26T16:48:58;101610.59;;;15.54;100.00
20043;BME280;10182;52.896;6.496;2022-10-26T16:54:00;101618.78;;;15.51;100.00
20043;BME280;10182;52.896;6.496;2022-10-26T16:59:03;101614.47;;;15.49;100.00
20043;BME280;10182;52.896;6.496;2022-10-26T17:04:05;101610.31;;;15.43;100.00
20043;BME280;10182;52.896;6.496;2022-10-26T17:09:07;101620.59;;;15.33;100.00
20043;BME280;10182;52.896;6.496;2022-10-26T17:14:10;101618.03;;;15.32;100.00
20043;BME280;10182;52.896;6.496;2022-10-26T17:19:11;101617.56;;;15.23;100.00
20043;BME280;10182;52.896;6.496;2022-10-26T17:24:13;101631.00;;;15.22;100.00
20043;BME280;10182;52.896;6.496;2022-10-26T17:29:16;101637.91;;;15.26;100.00
20043;BME280;10182;52.896;6.496;2022-10-26T17:34:18;101638.75;;;15.27;100.00
20043;BME280;10182;52.896;6.496;2022-10-26T17:39:19;101651.25;;;15.26;100.00
20043;BME280;10182;52.896;6.496;2022-10-26T17:44:22;101664.22;;;15.16;100.00
20043;BME280;10182;52.896;6.496;2022-10-26T17:49:24;101675.25;;;15.09;100.00
20043;BME280;10182;52.896;6.496;2022-10-26T17:54:26;101682.88;;;14.99;100.00
20043;BME280;10182;52.896;6.496;2022-10-26T17:59:29;101693.91;;;14.91;100.00
20043;BME280;10182;52.896;6.496;2022-10-26T18:04:30;101703.25;;;14.82;100.00
20043;BME280;10182;52.896;6.496;2022-10-26T18:09:32;101705.34;;;14.76;100.00
20043;BME280;10182;52.896;6.496;2022-10-26T18:14:35;101713.50;;;14.72;100.00
20043;BME280;10182;52.896;6.496;2022-10-26T18:19:37;101715.53;;;14.67;100.00
20043;BME280;10182;52.896;6.496;2022-10-26T18:24:38;101722.50;;;14.70;100.00
20043;BME280;10182;52.896;6.496;2022-10-26T18:29:41;101725.25;;;14.68;100.00
20043;BME280;10182;52.896;6.496;2022-10-26T18:34:43;101733.41;;;14.65;100.00
20043;BME280;10182;52.896;6.496;2022-10-26T18:39:45;101738.06;;;14.60;100.00
20043;BME280;10182;52.896;6.496;2022-10-26T18:44:48;101750.59;;;14.58;100.00
20043;BME280;10182;52.896;6.496;2022-10-26T18:49:49;101758.41;;;14.63;100.00
20043;BME280;10182;52.896;6.496;2022-10-26T18:54:51;101760.13;;;14.64;100.00
20043;BME280;10182;52.896;6.496;2022-10-26T18:59:54;101769.09;;;14.63;100.00
20043;BME280;10182;52.896;6.496;2022-10-26T19:04:56;101768.09;;;14.65;100.00
20043;BME280;10182;52.896;6.496;2022-10-26T19:09:58;101780.66;;;14.62;100.00
20043;BME280;10182;52.896;6.496;2022-10-26T19:15:01;101773.72;;;14.58;100.00
20043;BME280;10182;52.896;6.496;2022-10-26T19:20:03;101776.47;;;14.56;100.00
20043;BME280;10182;52.896;6.496;2022-10-26T19:25:06;101776.81;;;14.48;100.00
20043;BME280;10182;52.896;6.496;2022-10-26T19:30:10;101779.72;;;14.44;100.00
20043;BME280;10182;52.896;6.496;2022-10-26T19:35:12;101781.66;;;14.40;100.00
20043;BME280;10182;52.896;6.496;2022-10-26T19:40:14;101788.88;;;14.38;100.00
20043;BME280;10182;52.896;6.496;2022-10-26T19:45:17;101785.31;;;14.37;100.00
20043;BME280;10182;52.896;6.496;2022-10-26T19:50:19;101797.88;;;14.35;100.00
20043;BME280;10182;52.896;6.496;2022-10-26T19:55:20;101819.25;;;14.34;100.00
20043;BME280;10182;52.896;6.496;2022-10-26T20:00:24;101821.25;;;14.29;100.00
20043;BME280;10182;52.896;6.496;2022-10-26T20:05:25;101822.34;;;14.25;100.00
20043;BME280;10182;52.896;6.496;2022-10-26T20:10:27;101832.19;;;14.22;100.00
20043;BME280;10182;52.896;6.496;2022-10-26T20:15:30;101841.25;;;14.18;100.00
20043;BME280;10182;52.896;6.496;2022-10-26T20:20:33;101846.72;;;14.15;100.00
20043;BME280;10182;52.896;6.496;2022-10-26T20:25:39;101841.53;;;14.12;100.00
20043;BME280;10182;52.896;6.496;2022-10-26T20:30:46;101843.59;;;14.05;100.00
20043;BME280;10182;52.896;6.496;2022-10-26T20:35:54;101855.19;;;14.04;100.00
20043;BME280;10182;52.896;6.496;2022-10-26T20:40:57;101863.31;;;14.01;100.00
20043;BME280;10182;52.896;6.496;2022-10-26T20:46:01;101868.81;;;13.97;100.00
20043;BME280;10182;52.896;6.496;2022-10-26T20:51:05;101867.22;;;13.93;100.00
20043;BME280;10182;52.896;6.496;2022-10-26T20:56:16;101876.16;;;13.92;100.00
20043;BME280;10182;52.896;6.496;2022-10-26T21:01:23;101870.22;;;13.85;100.00
20043;BME280;10182;52.896;6.496;2022-10-26T21:06:25;101864.38;;;13.77;100.00
20043;BME280;10182;52.896;6.496;2022-10-26T21:11:27;101863.56;;;13.75;100.00
20043;BME280;10182;52.896;6.496;2022-10-26T21:16:30;101868.03;;;13.74;100.00
20043;BME280;10182;52.896;6.496;2022-10-26T21:21:32;101874.63;;;13.86;100.00
20043;BME280;10182;52.896;6.496;2022-10-26T21:26:33;101885.22;;;13.87;100.00
20043;BME280;10182;52.896;6.496;2022-10-26T21:31:36;101892.25;;;13.88;100.00
20043;BME280;10182;52.896;6.496;2022-10-26T21:36:38;101902.66;;;13.95;100.00
20043;BME280;10182;52.896;6.496;2022-10-26T21:41:40;101907.59;;;14.04;100.00
20043;BME280;10182;52.896;6.496;2022-10-26T21:46:44;101904.94;;;14.04;100.00
20043;BME280;10182;52.896;6.496;2022-10-26T21:51:46;101913.94;;;14.01;100.00
20043;BME280;10182;52.896;6.496;2022-10-26T21:56:47;101912.38;;;13.96;100.00
20043;BME280;10182;52.896;6.496;2022-10-26T22:01:50;101912.63;;;13.90;100.00
20043;BME280;10182;52.896;6.496;2022-10-26T22:06:52;101920.84;;;13.85;100.00
20043;BME280;10182;52.896;6.496;2022-10-26T22:11:54;101923.56;;;13.83;100.00
20043;BME280;10182;52.896;6.496;2022-10-26T22:16:57;101912.09;;;13.81;100.00
20043;BME280;10182;52.896;6.496;2022-10-26T22:21:58;101910.56;;;13.76;100.00
20043;BME280;10182;52.896;6.496;2022-10-26T22:27:00;101915.13;;;13.72;100.00
20043;BME280;10182;52.896;6.496;2022-10-26T22:32:03;101920.84;;;13.63;100.00
20043;BME280;10182;52.896;6.496;2022-10-26T22:37:05;101933.28;;;13.62;100.00
20043;BME280;10182;52.896;6.496;2022-10-26T22:42:06;101925.66;;;13.53;100.00
20043;BME280;10182;52.896;6.496;2022-10-26T22:47:09;101932.16;;;13.46;100.00
20043;BME280;10182;52.896;6.496;2022-10-26T22:52:11;101926.16;;;13.41;100.00
20043;BME280;10182;52.896;6.496;2022-10-26T22:57:13;101934.28;;;13.37;100.00
20043;BME280;10182;52.896;6.496;2022-10-26T23:02:16;101933.59;;;13.31;100.00
20043;BME280;10182;52.896;6.496;2022-10-26T23:07:18;101929.69;;;13.17;100.00
20043;BME280;10182;52.896;6.496;2022-10-26T23:12:19;101939.94;;;13.04;100.00
20043;BME280;10182;52.896;6.496;2022-10-26T23:17:22;101959.78;;;12.96;100.00
20043;BME280;10182;52.896;6.496;2022-10-26T23:22:24;101967.00;;;12.92;100.00
20043;BME280;10182;52.896;6.496;2022-10-26T23:27:25;101964.47;;;12.89;100.00
20043;BME280;10182;52.896;6.496;2022-10-26T23:32:29;101971.47;;;12.92;100.00
20043;BME280;10182;52.896;6.496;2022-10-26T23:37:30;101980.34;;;12.91;100.00
20043;BME280;10182;52.896;6.496;2022-10-26T23:42:32;101971.63;;;12.87;100.00
20043;BME280;10182;52.896;6.496;2022-10-26T23:47:35;101970.84;;;12.83;100.00
20043;BME280;10182;52.896;6.496;2022-10-26T23:52:37;101977.19;;;12.79;100.00
20043;BME280;10182;52.896;6.496;2022-10-26T23:57:38;101981.66;;;12.79;100.00
